sensor_id;sensor_type;location;lat;lon;timestamp;P1;durP1;ratioP1;P2;durP2;ratioP2
44098;SDS011;29762;50.086;14.364;2022-10-14T00:02:00;5.05;;;3.72;;
44098;SDS011;29762;50.086;14.364;2022-10-14T00:07:19;4.57;;;4.00;;
44098;SDS011;29762;50.086;14.364;2022-10-14T00:12:38;4.05;;;3.65;;
44098;SDS011;29762;50.086;14.364;2022-10-14T00:17:58;3.92;;;3.50;;
44098;SDS011;29762;50.086;14.364;2022-10-14T00:23:17;4.38;;;3.70;;
44098;SDS011;29762;50.086;14.364;2022-10-14T00:28:37;3.85;;;3.53;;
44098;SDS011;29762;50.086;14.364;2022-10-14T00:33:56;3.92;;;3.40;;
44098;SDS011;29762;50.086;14.364;2022-10-14T00:39:15;4.18;;;3.47;;
44098;SDS011;29762;50.086;14.364;2022-10-14T00:49:55;3.83;;;3.42;;
44098;SDS011;29762;50.086;14.364;2022-10-14T00:55:16;4.00;;;3.60;;
44098;SDS011;29762;50.086;14.364;2022-10-14T01:00:36;3.90;;;3.40;;
44098;SDS011;29762;50.086;14.364;2022-10-14T01:06:08;3.55;;;3.25;;
44098;SDS011;29762;50.086;14.364;2022-10-14T01:11:40;3.75;;;3.35;;
44098;SDS011;29762;50.086;14.364;2022-10-14T01:17:20;3.63;;;3.33;;
44098;SDS011;29762;50.086;14.364;2022-10-14T01:22:56;3.50;;;3.20;;
44098;SDS011;29762;50.086;14.364;2022-10-14T01:34:12;3.60;;;3.30;;
44098;SDS011;29762;50.086;14.364;2022-10-14T01:39:37;3.65;;;3.20;;
44098;SDS011;29762;50.086;14.364;2022-10-14T01:45:05;3.77;;;3.23;;
44098;SDS011;29762;50.086;14.364;2022-10-14T01:50:29;3.30;;;3.00;;
44098;SDS011;29762;50.086;14.364;2022-10-14T01:55:50;3.60;;;3.30;;
44098;SDS011;29762;50.086;14.364;2022-10-14T02:01:12;4.20;;;3.35;;
44098;SDS011;29762;50.086;14.364;2022-10-14T02:06:32;3.40;;;3.10;;
44098;SDS011;29762;50.086;14.364;2022-10-14T02:17:28;3.47;;;3.13;;
44098;SDS011;29762;50.086;14.364;2022-10-14T02:22:56;3.38;;;3.08;;
44098;SDS011;29762;50.086;14.364;2022-10-14T02:28:18;3.53;;;3.20;;
44098;SDS011;29762;50.086;14.364;2022-10-14T02:33:40;3.63;;;3.20;;
44098;SDS011;29762;50.086;14.364;2022-10-14T02:39:02;3.22;;;2.92;;
44098;SDS011;29762;50.086;14.364;2022-10-14T02:44:22;3.47;;;3.00;;
44098;SDS011;29762;50.086;14.364;2022-10-14T02:49:42;3.00;;;2.80;;
44098;SDS011;29762;50.086;14.364;2022-10-14T02:55:01;5.60;;;3.17;;
44098;SDS011;29762;50.086;14.364;2022-10-14T03:00:21;3.90;;;3.30;;
44098;SDS011;29762;50.086;14.364;2022-10-14T03:05:41;3.65;;;3.15;;
44098;SDS011;29762;50.086;14.364;2022-10-14T03:11:05;3.80;;;2.97;;
44098;SDS011;29762;50.086;14.364;2022-10-14T03:16:25;3.67;;;3.15;;
44098;SDS011;29762;50.086;14.364;2022-10-14T03:21:45;3.22;;;2.92;;
44098;SDS011;29762;50.086;14.364;2022-10-14T03:27:11;3.25;;;2.95;;
44098;SDS011;29762;50.086;14.364;2022-10-14T03:32:30;3.05;;;2.80;;
44098;SDS011;29762;50.086;14.364;2022-10-14T03:38:10;3.25;;;2.75;;
44098;SDS011;29762;50.086;14.364;2022-10-14T03:43:30;3.38;;;3.08;;
44098;SDS011;29762;50.086;14.364;2022-10-14T03:48:51;3.22;;;2.92;;
44098;SDS011;29762;50.086;14.364;2022-10-14T03:54:11;3.05;;;2.83;;
44098;SDS011;29762;50.086;14.364;2022-10-14T03:59:31;3.03;;;2.83;;
44098;SDS011;29762;50.086;14.364;2022-10-14T04:04:50;3.03;;;2.65;;
44098;SDS011;29762;50.086;14.364;2022-10-14T04:10:12;4.00;;;2.90;;
44098;SDS011;29762;50.086;14.364;2022-10-14T04:15:37;3.33;;;3.03;;
44098;SDS011;29762;50.086;14.364;2022-10-14T04:21:10;2.92;;;2.72;;
44098;SDS011;29762;50.086;14.364;2022-10-14T04:26:32;2.88;;;2.67;;
44098;SDS011;29762;50.086;14.364;2022-10-14T04:31:51;2.95;;;2.65;;
44098;SDS011;29762;50.086;14.364;2022-10-14T04:37:11;3.08;;;2.78;;
44098;SDS011;29762;50.086;14.364;2022-10-14T04:43:00;3.25;;;2.95;;
44098;SDS011;29762;50.086;14.364;2022-10-14T04:48:25;3.40;;;3.10;;
44098;SDS011;29762;50.086;14.364;2022-10-14T04:53:44;3.28;;;2.97;;
44098;SDS011;29762;50.086;14.364;2022-10-14T04:59:20;4.45;;;3.03;;
44098;SDS011;29762;50.086;14.364;2022-10-14T05:04:46;3.47;;;3.10;;
44098;SDS011;29762;50.086;14.364;2022-10-14T05:10:07;3.80;;;3.03;;
44098;SDS011;29762;50.086;14.364;2022-10-14T05:15:34;14.60;;;8.57;;
44098;SDS011;29762;50.086;14.364;2022-10-14T05:21:00;14.98;;;11.73;;
44098;SDS011;29762;50.086;14.364;2022-10-14T05:26:32;12.15;;;10.07;;
44098;SDS011;29762;50.086;14.364;2022-10-14T05:31:55;8.65;;;7.47;;
44098;SDS011;29762;50.086;14.364;2022-10-14T05:37:27;9.48;;;6.80;;
44098;SDS011;29762;50.086;14.364;2022-10-14T05:42:48;9.70;;;7.28;;
44098;SDS011;29762;50.086;14.364;2022-10-14T05:48:08;12.95;;;7.38;;
44098;SDS011;29762;50.086;14.364;2022-10-14T05:53:28;11.70;;;7.18;;
44098;SDS011;29762;50.086;14.364;2022-10-14T05:58:49;10.38;;;7.38;;
44098;SDS011;29762;50.086;14.364;2022-10-14T06:04:13;12.75;;;7.53;;
44098;SDS011;29762;50.086;14.364;2022-10-14T06:09:35;9.30;;;7.25;;
44098;SDS011;29762;50.086;14.364;2022-10-14T06:14:56;10.68;;;7.22;;
44098;SDS011;29762;50.086;14.364;2022-10-14T06:20:15;9.57;;;7.45;;
44098;SDS011;29762;50.086;14.364;2022-10-14T06:25:35;9.90;;;7.38;;
44098;SDS011;29762;50.086;14.364;2022-10-14T06:30:55;10.23;;;7.05;;
44098;SDS011;29762;50.086;14.364;2022-10-14T06:36:14;9.73;;;6.75;;
44098;SDS011;29762;50.086;14.364;2022-10-14T06:41:33;9.95;;;7.00;;
44098;SDS011;29762;50.086;14.364;2022-10-14T06:46:53;10.02;;;6.95;;
44098;SDS011;29762;50.086;14.364;2022-10-14T06:52:13;11.90;;;7.13;;
44098;SDS011;29762;50.086;14.364;2022-10-14T06:57:32;11.07;;;6.90;;
44098;SDS011;29762;50.086;14.364;2022-10-14T07:02:51;10.13;;;7.20;;
44098;SDS011;29762;50.086;14.364;2022-10-14T07:08:10;9.05;;;6.97;;
44098;SDS011;29762;50.086;14.364;2022-10-14T07:13:29;8.88;;;6.72;;
44098;SDS011;29762;50.086;14.364;2022-10-14T07:18:49;8.57;;;6.63;;
44098;SDS011;29762;50.086;14.364;2022-10-14T07:24:09;8.55;;;6.10;;
44098;SDS011;29762;50.086;14.364;2022-10-14T07:29:28;9.80;;;7.10;;
44098;SDS011;29762;50.086;14.364;2022-10-14T07:34:47;8.43;;;6.65;;
44098;SDS011;29762;50.086;14.364;2022-10-14T07:40:07;8.70;;;6.50;;
44098;SDS011;29762;50.086;14.364;2022-10-14T07:45:27;8.10;;;6.00;;
44098;SDS011;29762;50.086;14.364;2022-10-14T07:50:53;8.20;;;6.18;;
44098;SDS011;29762;50.086;14.364;2022-10-14T07:56:13;10.15;;;6.80;;
44098;SDS011;29762;50.086;14.364;2022-10-14T08:01:32;8.40;;;5.78;;
44098;SDS011;29762;50.086;14.364;2022-10-14T08:06:52;7.10;;;5.93;;
44098;SDS011;29762;50.086;14.364;2022-10-14T08:12:12;6.82;;;6.13;;
44098;SDS011;29762;50.086;14.364;2022-10-14T08:17:31;7.50;;;5.90;;
44098;SDS011;29762;50.086;14.364;2022-10-14T08:22:51;6.72;;;5.82;;
44098;SDS011;29762;50.086;14.364;2022-10-14T08:28:10;7.30;;;6.03;;
44098;SDS011;29762;50.086;14.364;2022-10-14T08:33:30;6.43;;;5.72;;
44098;SDS011;29762;50.086;14.364;2022-10-14T08:38:50;6.95;;;5.45;;
44098;SDS011;29762;50.086;14.364;2022-10-14T08:44:17;6.80;;;5.47;;
44098;SDS011;29762;50.086;14.364;2022-10-14T08:49:58;7.95;;;5.82;;
44098;SDS011;29762;50.086;14.364;2022-10-14T08:55:38;6.13;;;5.53;;
44098;SDS011;29762;50.086;14.364;2022-10-14T09:01:00;7.13;;;5.53;;
44098;SDS011;29762;50.086;14.364;2022-10-14T09:06:26;6.88;;;5.50;;
44098;SDS011;29762;50.086;14.364;2022-10-14T09:11:49;6.43;;;5.55;;
44098;SDS011;29762;50.086;14.364;2022-10-14T09:28:24;7.65;;;5.78;;
44098;SDS011;29762;50.086;14.364;2022-10-14T09:33:49;6.13;;;5.32;;
44098;SDS011;29762;50.086;14.364;2022-10-14T09:39:10;6.50;;;5.90;;
44098;SDS011;29762;50.086;14.364;2022-10-14T09:44:30;8.02;;;6.10;;
44098;SDS011;29762;50.086;14.364;2022-10-14T09:49:49;6.13;;;5.50;;
44098;SDS011;29762;50.086;14.364;2022-10-14T09:55:14;6.00;;;5.40;;
44098;SDS011;29762;50.086;14.364;2022-10-14T10:00:38;7.68;;;5.80;;
44098;SDS011;29762;50.086;14.364;2022-10-14T10:06:00;6.30;;;5.10;;
44098;SDS011;29762;50.086;14.364;2022-10-14T10:11:31;6.43;;;5.18;;
44098;SDS011;29762;50.086;14.364;2022-10-14T10:22:28;8.07;;;5.13;;
44098;SDS011;29762;50.086;14.364;2022-10-14T10:27:52;5.82;;;5.05;;
44098;SDS011;29762;50.086;14.364;2022-10-14T10:33:31;5.55;;;5.00;;
44098;SDS011;29762;50.086;14.364;2022-10-14T10:50:11;5.75;;;5.15;;
44098;SDS011;29762;50.086;14.364;2022-10-14T10:55:47;7.20;;;5.22;;
44098;SDS011;29762;50.086;14.364;2022-10-14T11:12:38;5.68;;;4.82;;
44098;SDS011;29762;50.086;14.364;2022-10-14T11:19:03;6.78;;;5.20;;
44098;SDS011;29762;50.086;14.364;2022-10-14T11:29:38;19.13;;;6.07;;
44098;SDS011;29762;50.086;14.364;2022-10-14T11:46:21;8.48;;;5.43;;
44098;SDS011;29762;50.086;14.364;2022-10-14T11:52:03;7.25;;;5.22;;
44098;SDS011;29762;50.086;14.364;2022-10-14T12:14:23;8.90;;;5.20;;
44098;SDS011;29762;50.086;14.364;2022-10-14T12:19:47;7.82;;;5.30;;
44098;SDS011;29762;50.086;14.364;2022-10-14T12:25:09;7.07;;;5.53;;
44098;SDS011;29762;50.086;14.364;2022-10-14T12:30:40;9.13;;;5.70;;
44098;SDS011;29762;50.086;14.364;2022-10-14T12:35:59;9.77;;;5.63;;
44098;SDS011;29762;50.086;14.364;2022-10-14T12:41:31;10.40;;;5.57;;
44098;SDS011;29762;50.086;14.364;2022-10-14T12:46:52;9.77;;;5.47;;
44098;SDS011;29762;50.086;14.364;2022-10-14T12:52:12;11.05;;;5.45;;
44098;SDS011;29762;50.086;14.364;2022-10-14T12:57:53;11.57;;;5.47;;
44098;SDS011;29762;50.086;14.364;2022-10-14T13:03:16;12.33;;;5.93;;
44098;SDS011;29762;50.086;14.364;2022-10-14T13:08:36;7.63;;;5.43;;
44098;SDS011;29762;50.086;14.364;2022-10-14T13:13:59;11.20;;;6.35;;
44098;SDS011;29762;50.086;14.364;2022-10-14T13:24:51;11.30;;;6.30;;
44098;SDS011;29762;50.086;14.364;2022-10-14T13:30:29;12.13;;;6.07;;
44098;SDS011;29762;50.086;14.364;2022-10-14T13:35:58;8.50;;;5.40;;
44098;SDS011;29762;50.086;14.364;2022-10-14T13:41:22;14.18;;;5.75;;
44098;SDS011;29762;50.086;14.364;2022-10-14T13:46:49;8.85;;;5.20;;
44098;SDS011;29762;50.086;14.364;2022-10-14T13:52:12;10.90;;;6.03;;
44098;SDS011;29762;50.086;14.364;2022-10-14T13:57:36;10.20;;;5.28;;
44098;SDS011;29762;50.086;14.364;2022-10-14T14:02:56;11.68;;;5.45;;
44098;SDS011;29762;50.086;14.364;2022-10-14T14:08:21;11.93;;;6.43;;
44098;SDS011;29762;50.086;14.364;2022-10-14T14:13:46;9.00;;;5.65;;
44098;SDS011;29762;50.086;14.364;2022-10-14T14:19:42;9.43;;;5.03;;
44098;SDS011;29762;50.086;14.364;2022-10-14T14:25:11;11.90;;;5.50;;
44098;SDS011;29762;50.086;14.364;2022-10-14T14:30:38;10.18;;;5.18;;
44098;SDS011;29762;50.086;14.364;2022-10-14T14:35:58;10.80;;;5.43;;
44098;SDS011;29762;50.086;14.364;2022-10-14T14:41:21;10.50;;;5.53;;
44098;SDS011;29762;50.086;14.364;2022-10-14T14:46:43;9.02;;;5.60;;
44098;SDS011;29762;50.086;14.364;2022-10-14T14:52:03;8.70;;;4.97;;
44098;SDS011;29762;50.086;14.364;2022-10-14T14:57:23;8.02;;;4.93;;
44098;SDS011;29762;50.086;14.364;2022-10-14T15:02:43;8.48;;;5.05;;
44098;SDS011;29762;50.086;14.364;2022-10-14T15:08:02;6.35;;;4.72;;
44098;SDS011;29762;50.086;14.364;2022-10-14T15:13:23;7.43;;;4.63;;
44098;SDS011;29762;50.086;14.364;2022-10-14T15:18:50;8.40;;;5.22;;
44098;SDS011;29762;50.086;14.364;2022-10-14T15:24:30;8.68;;;4.97;;
44098;SDS011;29762;50.086;14.364;2022-10-14T15:35:45;7.05;;;4.60;;
44098;SDS011;29762;50.086;14.364;2022-10-14T15:41:20;7.15;;;4.80;;
44098;SDS011;29762;50.086;14.364;2022-10-14T15:46:40;7.15;;;4.60;;
44098;SDS011;29762;50.086;14.364;2022-10-14T15:52:20;7.22;;;4.60;;
44098;SDS011;29762;50.086;14.364;2022-10-14T15:57:39;7.80;;;4.53;;
44098;SDS011;29762;50.086;14.364;2022-10-14T16:02:58;7.13;;;4.45;;
44098;SDS011;29762;50.086;14.364;2022-10-14T16:08:17;8.35;;;4.50;;
44098;SDS011;29762;50.086;14.364;2022-10-14T16:13:36;5.82;;;4.20;;
44098;SDS011;29762;50.086;14.364;2022-10-14T16:18:56;6.63;;;3.90;;
44098;SDS011;29762;50.086;14.364;2022-10-14T16:24:17;6.65;;;4.38;;
44098;SDS011;29762;50.086;14.364;2022-10-14T16:29:38;6.63;;;4.60;;
44098;SDS011;29762;50.086;14.364;2022-10-14T16:34:57;5.20;;;4.00;;
44098;SDS011;29762;50.086;14.364;2022-10-14T16:40:17;7.47;;;4.30;;
44098;SDS011;29762;50.086;14.364;2022-10-14T16:45:36;6.88;;;4.25;;
44098;SDS011;29762;50.086;14.364;2022-10-14T16:50:56;5.78;;;3.90;;
44098;SDS011;29762;50.086;14.364;2022-10-14T16:56:19;5.07;;;4.00;;
44098;SDS011;29762;50.086;14.364;2022-10-14T17:01:58;5.28;;;3.90;;
44098;SDS011;29762;50.086;14.364;2022-10-14T17:07:17;5.57;;;3.75;;
44098;SDS011;29762;50.086;14.364;2022-10-14T17:12:36;7.00;;;4.10;;
44098;SDS011;29762;50.086;14.364;2022-10-14T17:17:57;5.47;;;4.00;;
44098;SDS011;29762;50.086;14.364;2022-10-14T17:23:16;5.88;;;4.10;;
44098;SDS011;29762;50.086;14.364;2022-10-14T17:28:36;4.78;;;3.70;;
44098;SDS011;29762;50.086;14.364;2022-10-14T17:33:57;6.70;;;4.38;;
44098;SDS011;29762;50.086;14.364;2022-10-14T17:39:17;6.60;;;4.32;;
44098;SDS011;29762;50.086;14.364;2022-10-14T17:44:37;4.88;;;4.00;;
44098;SDS011;29762;50.086;14.364;2022-10-14T17:49:57;5.78;;;4.10;;
44098;SDS011;29762;50.086;14.364;2022-10-14T17:55:17;4.95;;;3.85;;
44098;SDS011;29762;50.086;14.364;2022-10-14T18:00:36;5.93;;;4.10;;
44098;SDS011;29762;50.086;14.364;2022-10-14T18:05:56;4.97;;;3.53;;
44098;SDS011;29762;50.086;14.364;2022-10-14T18:11:16;5.32;;;3.90;;
44098;SDS011;29762;50.086;14.364;2022-10-14T18:16:36;4.18;;;3.55;;
44098;SDS011;29762;50.086;14.364;2022-10-14T18:21:57;5.50;;;3.83;;
44098;SDS011;29762;50.086;14.364;2022-10-14T18:27:17;5.63;;;3.65;;
44098;SDS011;29762;50.086;14.364;2022-10-14T18:32:37;4.63;;;3.42;;
44098;SDS011;29762;50.086;14.364;2022-10-14T18:37:56;5.63;;;3.80;;
44098;SDS011;29762;50.086;14.364;2022-10-14T18:43:16;4.13;;;3.45;;
44098;SDS011;29762;50.086;14.364;2022-10-14T18:48:35;4.10;;;3.70;;
44098;SDS011;29762;50.086;14.364;2022-10-14T18:53:56;4.78;;;3.55;;
44098;SDS011;29762;50.086;14.364;2022-10-14T18:59:21;5.65;;;3.55;;
44098;SDS011;29762;50.086;14.364;2022-10-14T19:04:41;4.72;;;3.42;;
44098;SDS011;29762;50.086;14.364;2022-10-14T19:10:01;4.20;;;3.45;;
44098;SDS011;29762;50.086;14.364;2022-10-14T19:15:21;4.47;;;3.80;;
44098;SDS011;29762;50.086;14.364;2022-10-14T19:20:44;4.07;;;3.50;;
44098;SDS011;29762;50.086;14.364;2022-10-14T19:26:15;4.03;;;3.47;;
44098;SDS011;29762;50.086;14.364;2022-10-14T19:31:36;3.85;;;3.28;;
44098;SDS011;29762;50.086;14.364;2022-10-14T19:36:56;4.70;;;3.28;;
44098;SDS011;29762;50.086;14.364;2022-10-14T19:42:18;4.38;;;3.50;;
44098;SDS011;29762;50.086;14.364;2022-10-14T19:47:37;3.78;;;3.22;;
44098;SDS011;29762;50.086;14.364;2022-10-14T19:52:57;3.67;;;3.30;;
44098;SDS011;29762;50.086;14.364;2022-10-14T19:58:16;4.10;;;3.42;;
44098;SDS011;29762;50.086;14.364;2022-10-14T20:03:35;4.30;;;3.38;;
44098;SDS011;29762;50.086;14.364;2022-10-14T20:08:55;4.10;;;3.40;;
44098;SDS011;29762;50.086;14.364;2022-10-14T20:14:15;3.42;;;3.00;;
44098;SDS011;29762;50.086;14.364;2022-10-14T20:19:36;4.65;;;3.38;;
44098;SDS011;29762;50.086;14.364;2022-10-14T20:24:55;3.30;;;3.00;;
44098;SDS011;29762;50.086;14.364;2022-10-14T20:30:15;3.90;;;3.30;;
44098;SDS011;29762;50.086;14.364;2022-10-14T20:35:34;3.22;;;2.90;;
44098;SDS011;29762;50.086;14.364;2022-10-14T20:41:06;4.60;;;3.58;;
44098;SDS011;29762;50.086;14.364;2022-10-14T20:46:27;3.78;;;3.20;;
44098;SDS011;29762;50.086;14.364;2022-10-14T20:51:46;3.25;;;2.95;;
44098;SDS011;29762;50.086;14.364;2022-10-14T20:57:05;3.60;;;2.90;;
44098;SDS011;29762;50.086;14.364;2022-10-14T21:02:24;3.65;;;3.08;;
44098;SDS011;29762;50.086;14.364;2022-10-14T21:07:44;3.30;;;3.00;;
44098;SDS011;29762;50.086;14.364;2022-10-14T21:13:03;3.67;;;3.17;;
44098;SDS011;29762;50.086;14.364;2022-10-14T21:18:22;3.58;;;3.10;;
44098;SDS011;29762;50.086;14.364;2022-10-14T21:23:42;3.88;;;3.00;;
44098;SDS011;29762;50.086;14.364;2022-10-14T21:29:02;3.28;;;2.97;;
44098;SDS011;29762;50.086;14.364;2022-10-14T21:34:22;3.65;;;2.95;;
44098;SDS011;29762;50.086;14.364;2022-10-14T21:39:42;2.90;;;2.60;;
44098;SDS011;29762;50.086;14.364;2022-10-14T21:45:02;3.38;;;3.05;;
44098;SDS011;29762;50.086;14.364;2022-10-14T21:50:22;3.10;;;2.80;;
44098;SDS011;29762;50.086;14.364;2022-10-14T21:55:41;3.13;;;2.80;;
44098;SDS011;29762;50.086;14.364;2022-10-14T22:01:08;2.90;;;2.70;;
44098;SDS011;29762;50.086;14.364;2022-10-14T22:06:30;3.00;;;2.70;;
44098;SDS011;29762;50.086;14.364;2022-10-14T22:11:50;2.80;;;2.50;;
44098;SDS011;29762;50.086;14.364;2022-10-14T22:17:11;2.83;;;2.50;;
44098;SDS011;29762;50.086;14.364;2022-10-14T22:22:31;3.08;;;2.78;;
44098;SDS011;29762;50.086;14.364;2022-10-14T22:27:50;2.88;;;2.58;;
44098;SDS011;29762;50.086;14.364;2022-10-14T22:33:09;3.40;;;2.70;;
44098;SDS011;29762;50.086;14.364;2022-10-14T22:38:28;3.60;;;2.70;;
44098;SDS011;29762;50.086;14.364;2022-10-14T22:43:52;3.13;;;2.50;;
44098;SDS011;29762;50.086;14.364;2022-10-14T22:49:13;3.08;;;2.72;;
44098;SDS011;29762;50.086;14.364;2022-10-14T22:54:33;3.08;;;2.53;;
44098;SDS011;29762;50.086;14.364;2022-10-14T22:59:53;2.40;;;2.20;;
44098;SDS011;29762;50.086;14.364;2022-10-14T23:05:12;2.70;;;2.50;;
44098;SDS011;29762;50.086;14.364;2022-10-14T23:10:32;2.85;;;2.58;;
44098;SDS011;29762;50.086;14.364;2022-10-14T23:15:55;3.30;;;2.58;;
44098;SDS011;29762;50.086;14.364;2022-10-14T23:21:26;2.65;;;2.45;;
44098;SDS011;29762;50.086;14.364;2022-10-14T23:26:47;2.60;;;2.40;;
44098;SDS011;29762;50.086;14.364;2022-10-14T23:32:06;3.30;;;2.45;;
44098;SDS011;29762;50.086;14.364;2022-10-14T23:37:26;2.60;;;2.40;;
44098;SDS011;29762;50.086;14.364;2022-10-14T23:42:45;2.75;;;2.53;;
44098;SDS011;29762;50.086;14.364;2022-10-14T23:48:05;2.50;;;2.30;;
44098;SDS011;29762;50.086;14.364;2022-10-14T23:53:25;2.70;;;2.40;;
44098;SDS011;29762;50.086;14.364;2022-10-14T23:58:44;2.58;;;2.30;;
